tititudorancea.com
Station Historical Data
Daily Summary for May 2, 2018 Units:  Metric    English   Both
« Previous Day
Next Day »
Daily Weekly Monthly Yearly Custom
  High: Low: Average:
Temperature: -17.8 °C 11.9 °C 16.6 °C
Dew Point: -17.8 °C 3.1 °C 4.4 °C
Humidity: Humidity % 32 % 45 %
Wind Speed: 0 km/h 0 km/h 6.1 km/h
Wind Gust: 0 km/h - -
Wind:- - South
Pressure: 0 hPa 1010 hPa -
Precipitation: 0 mm    
Historical Graphs
 
 
Ararat weather Find more about Weather in Ararat, AU


 



 


Tabular Data for May 2, 2018
Time Temperature Dew Point Pressure Wind Wind Speed Wind Gust Humidity Rainfall Rate (Hourly)
-17.8 °C -17.8 °C 0 hPa Calm     Humidity % 0 mm
00:01 15.6 °C 3.1 °C 1017.8 hPa NNE 2.9 km/h 7.4 km/h 43 % 0 mm
00:06 15.7 °C 3.1 °C 1017.8 hPa NNE 2.9 km/h 5.6 km/h 43 % 0 mm
00:11 15.7 °C 3.2 °C 1017.8 hPa NNE 2.7 km/h 5.6 km/h 43 % 0 mm
00:16 15.7 °C 3.2 °C 1017.8 hPa Calm     43 % 0 mm
00:21 15.7 °C 3.2 °C 1017.5 hPa NNE 4.2 km/h 5.6 km/h 43 % 0 mm
00:26 15.7 °C 3.1 °C 1017.5 hPa NNE 5 km/h 7.4 km/h 43 % 0 mm
00:31 15.6 °C 3.4 °C 1017.5 hPa NNE 0.5 km/h 1.9 km/h 44 % 0 mm
00:36 15.5 °C 3.3 °C 1017.5 hPa NNE 1 km/h 1.9 km/h 44 % 0 mm
00:41 15.4 °C 3.2 °C 1017.5 hPa NNE 1.3 km/h 3.7 km/h 44 % 0 mm
00:46 15.3 °C 3.1 °C 1017.5 hPa NNE 1 km/h 1.9 km/h 44 % 0 mm
00:51 15.3 °C 3.1 °C 1017.2 hPa NNE 6.1 km/h 9.7 km/h 44 % 0 mm
00:56 15.5 °C 3.3 °C 1017.2 hPa NNE 10 km/h 13 km/h 44 % 0 mm
01:01 15.7 °C 3.2 °C 1017.2 hPa NNE 8 km/h 13 km/h 43 % 0 mm
01:06 15.9 °C 3.3 °C 1016.8 hPa North 14.2 km/h 20.4 km/h 43 % 0 mm
01:11 16.1 °C 3.1 °C 1016.8 hPa NNE 5.5 km/h 11.1 km/h 42 % 0 mm
01:16 16.2 °C 3.3 °C 1016.8 hPa North 9.2 km/h 18.5 km/h 42 % 0 mm
01:21 16.2 °C 3.3 °C 1016.8 hPa North 5 km/h 9.3 km/h 42 % 0 mm
01:26 16.2 °C 3.2 °C 1016.8 hPa North 6.8 km/h 14.8 km/h 42 % 0 mm
01:31 16.2 °C 3.2 °C 1016.8 hPa North 7.9 km/h 18.5 km/h 42 % 0 mm
01:36 16.2 °C 3.3 °C 1016.8 hPa North 5.8 km/h 11.3 km/h 42 % 0 mm
01:41 16.2 °C 3.2 °C 1016.8 hPa North 4.8 km/h 9.3 km/h 42 % 0 mm
01:46 16.2 °C 3.2 °C 1016.8 hPa North 6.3 km/h 9.3 km/h 42 % 0 mm
01:51 16.2 °C 3.3 °C 1016.8 hPa North 6.1 km/h 13 km/h 42 % 0 mm
01:56 16.2 °C 3.3 °C 1016.5 hPa North 6.4 km/h 9.3 km/h 42 % 0 mm
02:01 16.3 °C 3.3 °C 1016.5 hPa North 8.5 km/h 13 km/h 42 % 0 mm
02:06 16.3 °C 3.1 °C 1016.5 hPa North 6.9 km/h 13 km/h 41 % 0 mm
02:11 16.3 °C 3.1 °C 1016.5 hPa North 4 km/h 7.4 km/h 41 % 0 mm
02:16 16.2 °C 3.3 °C 1016.5 hPa North 2.9 km/h 5.6 km/h 42 % 0 mm
02:21 16.2 °C 3.2 °C 1016.1 hPa North 3.5 km/h 5.6 km/h 42 % 0 mm
02:26 16.1 °C 3.2 °C 1016.5 hPa North 8.9 km/h 14.8 km/h 42 % 0 mm
02:31 16.2 °C 3.3 °C 1016.1 hPa North 8 km/h 8 km/h 42 % 0 mm
02:36 16.3 °C 3.4 °C 1016.1 hPa North 2.7 km/h 5.6 km/h 42 % 0 mm
02:41 16.4 °C 3.1 °C 1016.1 hPa North 3.4 km/h 5.6 km/h 41 % 0 mm
02:46 16.4 °C 3.1 °C 1016.1 hPa North 4.5 km/h 7.4 km/h 41 % 0 mm
02:51 16.4 °C 3.2 °C 1016.1 hPa North 3.5 km/h 9.3 km/h 41 % 0 mm
02:56 16.4 °C 3.1 °C 1015.8 hPa North 4.2 km/h 5.6 km/h 41 % 0 mm
03:01 16.4 °C 3.1 °C 1016.1 hPa North 3.7 km/h 7.4 km/h 41 % 0 mm
03:06 16.4 °C 3.1 °C 1015.8 hPa North 3.2 km/h 9.3 km/h 41 % 0 mm
03:11 16.3 °C 3.1 °C 1015.8 hPa North 8 km/h 11.1 km/h 41 % 0 mm
03:16 16.3 °C 3.3 °C 1015.8 hPa North 4 km/h 7.4 km/h 42 % 0 mm
03:21 16.2 °C 3.2 °C 1015.8 hPa North 1.1 km/h 3.7 km/h 42 % 0 mm
03:26 16.1 °C 3.2 °C 1015.5 hPa North 2.4 km/h 5.6 km/h 42 % 0 mm
03:31 16.2 °C 3.3 °C 1015.5 hPa North 4.8 km/h 7.4 km/h 42 % 0 mm
03:36 16.2 °C 3.2 °C 1015.5 hPa North 4 km/h 9.3 km/h 42 % 0 mm
03:41 16.1 °C 3.2 °C 1015.5 hPa North 4.5 km/h 5.6 km/h 42 % 0 mm
03:46 16 °C 3.1 °C 1015.5 hPa North 4.3 km/h 7.4 km/h 42 % 0 mm
03:51 15.9 °C 3.3 °C 1015.5 hPa North 2.7 km/h 5.6 km/h 43 % 0 mm
03:56 15.8 °C 3.3 °C 1015.5 hPa North 4.2 km/h 6.4 km/h 43 % 0 mm
04:01 15.8 °C 3.2 °C 1015.5 hPa North 3.5 km/h 8 km/h 43 % 0 mm
04:06 15.7 °C 3.2 °C 1015.5 hPa North 5.6 km/h 9.3 km/h 43 % 0 mm
04:11 15.7 °C 3.2 °C 1015.5 hPa North 5.6 km/h 13 km/h 43 % 0 mm
04:16 15.7 °C 3.2 °C 1015.5 hPa North 6.3 km/h 9.3 km/h 43 % 0 mm
04:21 15.8 °C 3.2 °C 1015.5 hPa North 5.3 km/h 13 km/h 43 % 0 mm
04:26 15.8 °C 3.2 °C 1015.1 hPa North 5.3 km/h 7.4 km/h 43 % 0 mm
04:31 15.7 °C 3.4 °C 1015.5 hPa North 5.5 km/h 9.3 km/h 44 % 0 mm
04:36 15.5 °C 3.3 °C 1015.5 hPa North 5.1 km/h 9.3 km/h 44 % 0 mm
04:41 15.4 °C 3.2 °C 1015.5 hPa North 6.4 km/h 6.4 km/h 44 % 0 mm
04:46 15.7 °C 3.1 °C 1015.5 hPa North 6.8 km/h 6.8 km/h 43 % 0 mm
04:51 15.7 °C 3.5 °C 1015.5 hPa North 3.7 km/h 5.6 km/h 44 % 0 mm
04:56 15.2 °C 3.3 °C 1015.5 hPa North 5.6 km/h 9.3 km/h 45 % 0 mm
05:01 14.9 °C 3.1 °C 1015.5 hPa North 4.8 km/h 8 km/h 45 % 0 mm
05:06 14.8 °C 3.3 °C 1015.5 hPa North 3.1 km/h 5.6 km/h 46 % 0 mm
05:11 14.8 °C 3.3 °C 1015.5 hPa North 2.1 km/h 5.6 km/h 46 % 0 mm
05:17 14.7 °C 3.2 °C 1015.1 hPa North 2.7 km/h 3.7 km/h 46 % 0 mm
05:22 14.6 °C 3.4 °C 1015.1 hPa North 2.3 km/h 5.6 km/h 47 % 0 mm
05:27 14.6 °C 3.4 °C 1015.1 hPa North 1.8 km/h 3.7 km/h 47 % 0 mm
05:32 14.6 °C 3.4 °C 1015.1 hPa North 2.6 km/h 3.7 km/h 47 % 0 mm
05:37 14.6 °C 3.4 °C 1015.1 hPa North 5.5 km/h 5.6 km/h 47 % 0 mm
05:42 14.6 °C 3.7 °C 1015.1 hPa North 5.5 km/h 5.6 km/h 48 % 0 mm
05:47 14.5 °C 3.3 °C 1015.1 hPa North 5.3 km/h 6.4 km/h 47 % 0 mm
05:52 14.5 °C 3.3 °C 1015.1 hPa North 4.2 km/h 7.4 km/h 47 % 0 mm
05:57 14.4 °C 3.3 °C 1015.1 hPa North 4.5 km/h 9.7 km/h 47 % 0 mm
06:02 14.4 °C 3.5 °C 1015.1 hPa North 4 km/h 5.6 km/h 48 % 0 mm
06:07 14.4 °C 3.5 °C 1015.1 hPa North 2.7 km/h 5.6 km/h 48 % 0 mm
06:12 14.3 °C 3.4 °C 1015.1 hPa North 2.9 km/h 5.6 km/h 48 % 0 mm
06:17 14.2 °C 3.7 °C 1015.1 hPa North 3.7 km/h 5.6 km/h 49 % 0 mm
06:22 14.2 °C 3.6 °C 1015.1 hPa North 2.6 km/h 5.6 km/h 49 % 0 mm
06:27 14.1 °C 3.6 °C 1015.1 hPa North 2.4 km/h 4.8 km/h 49 % 0 mm
06:32 14.1 °C 3.8 °C 1015.1 hPa North 3.2 km/h 5.6 km/h 50 % 0 mm
06:37 14 °C 3.7 °C 1015.1 hPa North 2.1 km/h 5.6 km/h 50 % 0 mm
06:42 14 °C 3.7 °C 1015.1 hPa North 3.7 km/h 5.6 km/h 50 % 0 mm
06:47 14.1 °C 3.8 °C 1015.1 hPa North 3.2 km/h 5.6 km/h 50 % 0 mm
06:52 14.1 °C 3.8 °C 1015.1 hPa North 4 km/h 6.4 km/h 50 % 0 mm
06:57 14.2 °C 3.9 °C 1015.5 hPa North 5.5 km/h 5.6 km/h 50 % 0 mm
07:02 14.3 °C 3.7 °C 1015.5 hPa North 3.9 km/h 5.6 km/h 49 % 0 mm
07:07 14.3 °C 3.8 °C 1015.5 hPa North 2.3 km/h 3.7 km/h 49 % 0 mm
07:12 14.3 °C 3.8 °C 1015.5 hPa North 2.7 km/h 3.7 km/h 49 % 0 mm
07:17 14.3 °C 4 °C 1015.5 hPa North 1.1 km/h 3.7 km/h 50 % 0 mm
07:22 14.2 °C 3.7 °C 1015.5 hPa North 5.5 km/h 9.3 km/h 49 % 0 mm
07:27 14.2 °C 3.9 °C 1015.5 hPa North 3.9 km/h 7.4 km/h 50 % 0 mm
07:32 14.2 °C 3.9 °C 1015.5 hPa North 3.9 km/h 5.6 km/h 50 % 0 mm
07:37 14.1 °C 3.8 °C 1015.5 hPa North 2.3 km/h 5.6 km/h 50 % 0 mm
07:42 14 °C 4 °C 1015.5 hPa North 4.8 km/h 9.7 km/h 51 % 0 mm
07:47 14 °C 4 °C 1015.5 hPa North 3.1 km/h 5.6 km/h 51 % 0 mm
07:52 13.9 °C 3.9 °C 1015.5 hPa North 3.5 km/h 5.6 km/h 51 % 0 mm
07:57 13.9 °C 3.9 °C 1015.8 hPa North 5.6 km/h 7.4 km/h 51 % 0 mm
08:02 13.9 °C 3.9 °C 1015.8 hPa North 4 km/h 5.6 km/h 51 % 0 mm
08:07 13.9 °C 3.9 °C 1016.1 hPa North 2.7 km/h 3.7 km/h 51 % 0 mm
08:12 13.9 °C 4.2 °C 1016.1 hPa North 3.7 km/h 5.6 km/h 52 % 0 mm
08:17 13.9 °C 4.2 °C 1016.1 hPa North 3.4 km/h 5.6 km/h 52 % 0 mm
08:22 13.9 °C 4.2 °C 1016.1 hPa North 4.5 km/h 5.6 km/h 52 % 0 mm
08:27 14 °C 4.3 °C 1016.1 hPa North 4.8 km/h 5.6 km/h 52 % 0 mm
08:32 14.2 °C 4.4 °C 1016.1 hPa North 2.3 km/h 3.7 km/h 52 % 0 mm
08:37 14.2 °C 4.5 °C 1015.8 hPa North 2.3 km/h 5.6 km/h 52 % 0 mm
08:42 14.3 °C 4.6 °C 1015.8 hPa North 3.5 km/h 5.6 km/h 52 % 0 mm
08:47 14.4 °C 4.7 °C 1015.8 hPa North 1.4 km/h 3.7 km/h 52 % 0 mm
08:52 14.5 °C 4.5 °C 1015.8 hPa North 2.9 km/h 5.6 km/h 51 % 0 mm
08:57 14.6 °C 4.6 °C 1015.8 hPa North 3.9 km/h 5.6 km/h 51 % 0 mm
09:02 14.7 °C 4.9 °C 1015.8 hPa North 3.4 km/h 5.6 km/h 52 % 0 mm
09:07 14.8 °C 4.7 °C 1015.8 hPa North 2.3 km/h 5.6 km/h 51 % 0 mm
09:12 14.9 °C 4.8 °C 1015.8 hPa North 4 km/h 6.4 km/h 51 % 0 mm
09:17 14.9 °C 4.9 °C 1015.8 hPa North 4.8 km/h 7.4 km/h 51 % 0 mm
09:22 15 °C 4.9 °C 1015.8 hPa North 1.3 km/h 7.4 km/h 51 % 0 mm
09:27 15.1 °C 5.3 °C 1015.8 hPa North 0.8 km/h 1.9 km/h 52 % 0 mm
09:32 15.2 °C 5.2 °C 1015.8 hPa North 5 km/h 7.4 km/h 51 % 0 mm
09:37 15.3 °C 5.2 °C 1015.8 hPa North 3.1 km/h 5.6 km/h 51 % 0 mm
09:42 15.4 °C 5.3 °C 1015.8 hPa North 4.3 km/h 7.4 km/h 51 % 0 mm
09:47 15.5 °C 5.4 °C 1015.8 hPa North 6 km/h 13 km/h 51 % 0 mm
09:52 15.6 °C 5.2 °C 1015.8 hPa North 4.5 km/h 11.1 km/h 50 % 0 mm
09:57 15.7 °C 5.3 °C 1015.5 hPa North 7.6 km/h 14.8 km/h 50 % 0 mm
10:02 15.9 °C 5.4 °C 1015.5 hPa North 9 km/h 11.1 km/h 50 % 0 mm
10:07 16.1 °C 5.6 °C 1015.5 hPa North 4.2 km/h 7.4 km/h 50 % 0 mm
10:12 16.2 °C 5.5 °C 1015.5 hPa North 4.7 km/h 6.4 km/h 49 % 0 mm
10:17 16.4 °C 5.7 °C 1015.5 hPa North 6.4 km/h 11.1 km/h 49 % 0 mm
10:22 16.5 °C 5.4 °C 1015.5 hPa North 6.8 km/h 9.3 km/h 48 % 0 mm
10:27 16.6 °C 5.2 °C 1015.5 hPa North 7.7 km/h 9.3 km/h 47 % 0 mm
10:32 16.7 °C 5.3 °C 1015.5 hPa North 9 km/h 11.1 km/h 47 % 0 mm
10:37 16.8 °C 5.4 °C 1015.5 hPa North 7.6 km/h 14.8 km/h 47 % 0 mm
10:42 17 °C 5.6 °C 1015.1 hPa North 5 km/h 9.3 km/h 47 % 0 mm
10:47 17.3 °C 5.8 °C 1015.1 hPa North 1.6 km/h 5.6 km/h 47 % 0 mm
10:52 17.6 °C 5.8 °C 1015.1 hPa North 6.9 km/h 12.9 km/h 46 % 0 mm
10:57 17.8 °C 5.7 °C 1015.1 hPa North 6 km/h 11.1 km/h 45 % 0 mm
11:02 18 °C 5.9 °C 1015.1 hPa NNW 6.4 km/h 11.3 km/h 45 % 0 mm
11:07 18.2 °C 5.8 °C 1015.1 hPa NNW 5.6 km/h 14.8 km/h 44 % 0 mm
11:12 18.3 °C 5.5 °C 1015.1 hPa NNE 8.2 km/h 14.8 km/h 43 % 0 mm
11:17 18.4 °C 5.6 °C 1014.8 hPa North 11.6 km/h 20.4 km/h 43 % 0 mm
11:22 18.4 °C 5.6 °C 1014.8 hPa North 7.6 km/h 11.1 km/h 43 % 0 mm
11:27 18.4 °C 5.3 °C 1014.8 hPa North 9.7 km/h 9.7 km/h 42 % 0 mm
11:32 18.6 °C 5.7 °C 1014.8 hPa North 12.9 km/h 14.5 km/h 43 % 0 mm
11:37 18.6 °C 5.4 °C 1014.4 hPa NE 10.1 km/h 16.7 km/h 42 % 0 mm
11:42 18.6 °C 5.4 °C 1014.4 hPa North 5.5 km/h 7.4 km/h 42 % 0 mm
11:47 18.7 °C 5.6 °C 1014.1 hPa North 9 km/h 16.7 km/h 42 % 0 mm
11:52 18.8 °C 5.6 °C 1014.1 hPa North 3.7 km/h 18.5 km/h 42 % 0 mm
11:57 18.9 °C 5 °C 1014.1 hPa North 10 km/h 14.8 km/h 40 % 0 mm
12:02 19.1 °C 5.2 °C 1013.8 hPa North 8.2 km/h 11.1 km/h 40 % 0 mm
12:07 19.3 °C 4.6 °C 1013.8 hPa NNE 10.1 km/h 16.7 km/h 38 % 0 mm
12:12 19.4 °C 4.7 °C 1013.4 hPa NNW 12.7 km/h 13 km/h 38 % 0 mm
12:18 19.7 °C 4.2 °C 1013.4 hPa North 10.3 km/h 18.5 km/h 36 % 0 mm
12:23 19.9 °C 3.9 °C 1013.4 hPa NNW 12.6 km/h 18.5 km/h 35 % 0 mm
12:28 19.8 °C 3.9 °C 1013.4 hPa NNW 14 km/h 18.5 km/h 35 % 0 mm
12:33 20.2 °C 4.2 °C 1013.4 hPa NNW 8 km/h 14.8 km/h 35 % 0 mm
12:38 20.3 °C 3.9 °C 1013.1 hPa NW 13.4 km/h 20.4 km/h 34 % 0 mm
12:43 20.4 °C 4.1 °C 1013.1 hPa North 15.1 km/h 22.2 km/h 34 % 0 mm
12:48 20.4 °C 4.1 °C 1012.8 hPa NNW 6.3 km/h 14.8 km/h 34 % 0 mm
12:53 20.4 °C 3.6 °C 1012.8 hPa NNW 9.5 km/h 14.8 km/h 33 % 0 mm
12:58 20.3 °C 3.9 °C 1012.8 hPa NNE 14.5 km/h 27.8 km/h 34 % 0 mm
13:03 20.2 °C 4.3 °C 1012.8 hPa North 16.1 km/h 20.4 km/h 35 % 0 mm
13:08 20.2 °C 4.3 °C 1012.8 hPa North 16.9 km/h 18.5 km/h 35 % 0 mm
13:13 20.4 °C 4.4 °C 1012.4 hPa North 16.3 km/h 19.3 km/h 35 % 0 mm
13:18 20.8 °C 4.7 °C 1012.1 hPa NNE 18.2 km/h 24.1 km/h 35 % 0 mm
13:23 20.8 °C 4.3 °C 1012.1 hPa NNE 9.3 km/h 16.7 km/h 34 % 0 mm
13:28 21.1 °C 4.6 °C 1012.1 hPa North 8.2 km/h 16.7 km/h 34 % 0 mm
13:33 21.1 °C 4.6 °C 1011.4 hPa NNE 10.6 km/h 16.7 km/h 34 % 0 mm
13:38 21.1 °C 4.6 °C 1011.4 hPa North 12.6 km/h 18.5 km/h 34 % 0 mm
13:43 21.4 °C 4.4 °C 1011.4 hPa North 16.1 km/h 22.2 km/h 33 % 0 mm
13:48 21.4 °C 4.9 °C 1011.4 hPa North 18.7 km/h 25.9 km/h 34 % 0 mm
13:53 21.4 °C 4.9 °C 1011.4 hPa NNE 10.6 km/h 20.4 km/h 34 % 0 mm
13:58 21.6 °C 5.1 °C 1011.4 hPa NNE 9.8 km/h 17.7 km/h 34 % 0 mm
14:03 21.9 °C 5.3 °C 1011.4 hPa NNW 14.3 km/h 24.1 km/h 34 % 0 mm
14:08 21.9 °C 5.3 °C 1011.1 hPa NNE 20 km/h 27.8 km/h 34 % 0 mm
14:13 21.9 °C 5.3 °C 1011.1 hPa North 20 km/h 29.6 km/h 34 % 0 mm
14:18 22.2 °C 5.1 °C 1011.1 hPa NNE 14.5 km/h 22.5 km/h 33 % 0 mm
14:23 22.3 °C 4.8 °C 1011.1 hPa NNE 11.4 km/h 25.9 km/h 32 % 0 mm
14:28 22.3 °C 5.3 °C 1011.1 hPa NNW 8.9 km/h 14.8 km/h 33 % 0 mm
14:33 22.5 °C 5 °C 1011.1 hPa North 14.3 km/h 27.8 km/h 32 % 0 mm
14:38 22.6 °C 5 °C 1011.1 hPa North 10.8 km/h 20.4 km/h 32 % 0 mm
14:43 22.5 °C 5 °C 1011.1 hPa NNE 9.3 km/h 22.2 km/h 32 % 0 mm
14:48 22.3 °C 5.2 °C 1010.7 hPa NNW 11.3 km/h 18.5 km/h 33 % 0 mm
14:53 22.3 °C 5.2 °C 1010.7 hPa NNW 14.8 km/h 20.4 km/h 33 % 0 mm
14:58 22.3 °C 5.2 °C 1011.1 hPa North 12.1 km/h 22.2 km/h 33 % 0 mm
15:03 22.5 °C 5 °C 1011.1 hPa North 16.6 km/h 25.9 km/h 32 % 0 mm
15:08 22.4 °C 4.9 °C 1010.7 hPa NNW 20.4 km/h 31.5 km/h 32 % 0 mm
15:13 22.4 °C 4.9 °C 1010.7 hPa North 16.6 km/h 24.1 km/h 32 % 0 mm
15:18 22.3 °C 4.8 °C 1010.7 hPa NNE 26.7 km/h 40.7 km/h 32 % 0 mm
15:23 22.2 °C 5.2 °C 1010.7 hPa North 14.6 km/h 24.1 km/h 33 % 0 mm
15:28 22.4 °C 4.9 °C 1010.7 hPa North 18.8 km/h 29.6 km/h 32 % 0 mm
15:33 22.4 °C 4.9 °C 1010.7 hPa North 14.6 km/h 25.9 km/h 32 % 0 mm
15:38 22.1 °C 5 °C 1010.7 hPa NNE 20.1 km/h 31.5 km/h 33 % 0 mm
15:43 22.2 °C 4.7 °C 1010.4 hPa North 19.3 km/h 31.5 km/h 32 % 0 mm
15:48 22.3 °C 4.8 °C 1010.4 hPa NNE 16.1 km/h 27.8 km/h 32 % 0 mm
15:53 21.9 °C 4.5 °C 1010.4 hPa North 12.2 km/h 22.2 km/h 32 % 0 mm
15:58 21.7 °C 5.1 °C 1010.7 hPa North 19.2 km/h 25.9 km/h 34 % 0 mm
16:03 21.5 °C 4.9 °C 1010.4 hPa NNE 12.2 km/h 18.5 km/h 34 % 0 mm
16:08 21.4 °C 4.9 °C 1010.4 hPa NNE 15.6 km/h 20.4 km/h 34 % 0 mm
16:13 21.3 °C 4.8 °C 1010.4 hPa North 13.4 km/h 22.2 km/h 34 % 0 mm
16:18 21.3 °C 4.8 °C 1010 hPa North 17.5 km/h 25.9 km/h 34 % 0 mm
16:23 21.2 °C 4.7 °C 1010 hPa North 11.3 km/h 18.5 km/h 34 % 0 mm
16:28 21.2 °C 4.7 °C 1010 hPa NNE 9.8 km/h 14.8 km/h 34 % 0 mm
16:33 21.2 °C 4.7 °C 1010 hPa North 13 km/h 20.4 km/h 34 % 0 mm
16:38 21.2 °C 4.7 °C 1010 hPa North 8.7 km/h 13 km/h 34 % 0 mm
16:43 21.2 °C 4.7 °C 1010 hPa North 7.4 km/h 14.8 km/h 34 % 0 mm
16:48 21.2 °C 5.2 °C 1010 hPa NNE 21.2 km/h 31.5 km/h 35 % 0 mm
16:53 21.2 °C 5.1 °C 1010 hPa North 14.5 km/h 20.4 km/h 35 % 0 mm
16:58 21.1 °C 5 °C 1010 hPa NNE 9.5 km/h 14.8 km/h 35 % 0 mm
17:03 21 °C 5.3 °C 1010 hPa NNE 10.3 km/h 18.5 km/h 36 % 0 mm
17:08 21 °C 5.3 °C 1010 hPa NE 10.6 km/h 18.5 km/h 36 % 0 mm
17:13 21.1 °C 5.4 °C 1010.4 hPa North 11.4 km/h 18.5 km/h 36 % 0 mm
17:18 21.1 °C 5.4 °C 1010.4 hPa North 10.9 km/h 14.8 km/h 36 % 0 mm
17:23 21 °C 5.3 °C 1010.4 hPa North 9 km/h 13 km/h 36 % 0 mm
17:28 20.9 °C 5.3 °C 1010.4 hPa North 13 km/h 16.7 km/h 36 % 0 mm
17:33 20.7 °C 5.1 °C 1010.7 hPa North 8.7 km/h 14.8 km/h 36 % 0 mm
17:38 20.6 °C 4.9 °C 1010.7 hPa North 8 km/h 13 km/h 36 % 0 mm
17:43 20.4 °C 5.3 °C 1010.7 hPa NNE 13.4 km/h 18.5 km/h 37 % 0 mm
17:48 20.3 °C 5.2 °C 1010.7 hPa North 7.7 km/h 9.3 km/h 37 % 0 mm
17:53 20.1 °C 5.3 °C 1010.7 hPa North 4.5 km/h 9.7 km/h 38 % 0 mm
17:58 19.9 °C 5.2 °C 1010.7 hPa North 6.4 km/h 9.3 km/h 38 % 0 mm
18:03 19.8 °C 5.1 °C 1010.7 hPa North 8.4 km/h 9.7 km/h 38 % 0 mm
18:08 19.6 °C 5.3 °C 1010.7 hPa North 7.2 km/h 8 km/h 39 % 0 mm
18:13 19.5 °C 5.2 °C 1010.7 hPa North 7.2 km/h 11.1 km/h 39 % 0 mm
18:18 19.4 °C 5.1 °C 1011.1 hPa North 5.3 km/h 7.4 km/h 39 % 0 mm
18:23 19.3 °C 5.3 °C 1011.1 hPa North 6.8 km/h 7.4 km/h 40 % 0 mm
18:28 19.1 °C 5.2 °C 1011.1 hPa North 6.3 km/h 8 km/h 40 % 0 mm
18:33 18.9 °C 5.1 °C 1011.1 hPa North 3.5 km/h 5.6 km/h 40 % 0 mm
18:38 18.8 °C 5.2 °C 1011.1 hPa North 4.7 km/h 7.4 km/h 41 % 0 mm
18:43 18.7 °C 5.2 °C 1011.1 hPa North 1.8 km/h 3.7 km/h 41 % 0 mm
18:48 18.4 °C 5.3 °C 1011.1 hPa North 1 km/h 3.2 km/h 42 % 0 mm
18:53 18.2 °C 5.1 °C 1011.1 hPa Calm   1.9 km/h 42 % 0 mm
18:58 18 °C 5.2 °C 1011.1 hPa North 1.9 km/h 3.7 km/h 43 % 0 mm
19:03 17.7 °C 5.3 °C 1011.1 hPa North 2.6 km/h 5.6 km/h 44 % 0 mm
19:08 17.4 °C 5.1 °C 1011.1 hPa North 1.8 km/h 3.7 km/h 44 % 0 mm
19:13 17.3 °C 5.2 °C 1011.1 hPa North 1.8 km/h 3.7 km/h 45 % 0 mm
19:18 17.1 °C 5.1 °C 1011.1 hPa North 1.8 km/h 3.7 km/h 45 % 0 mm
19:23 16.8 °C 5.1 °C 1011.1 hPa North 2.1 km/h 3.7 km/h 46 % 0 mm
19:28 16.6 °C 5.2 °C 1011.1 hPa North 3.4 km/h 5.6 km/h 47 % 0 mm
19:33 16.3 °C 5.2 °C 1011.1 hPa North 3.2 km/h 5.6 km/h 48 % 0 mm
19:38 15.9 °C 5.2 °C 1011.4 hPa North 1.9 km/h 3.7 km/h 49 % 0 mm
19:43 15.8 °C 5.1 °C 1011.4 hPa North 2.7 km/h 5.6 km/h 49 % 0 mm
19:48 15.7 °C 5 °C 1011.4 hPa North 2.6 km/h 3.7 km/h 49 % 0 mm
19:53 15.7 °C 5 °C 1011.4 hPa North 1.6 km/h 3.7 km/h 49 % 0 mm
19:58 15.5 °C 5.1 °C 1011.4 hPa North 0.3 km/h 3.7 km/h 50 % 0 mm
20:03 15.3 °C 5.2 °C 1011.4 hPa Calm   1.9 km/h 51 % 0 mm
20:08 14.9 °C 5.2 °C 1011.4 hPa Calm     52 % 0 mm
20:13 14.7 °C 5.2 °C 1011.4 hPa Calm     53 % 0 mm
20:18 14.5 °C 5.3 °C 1011.4 hPa Calm     54 % 0 mm
20:23 14.2 °C 5.1 °C 1011.4 hPa Calm     54 % 0 mm
20:28 13.6 °C 5 °C 1011.4 hPa Calm     56 % 0 mm
20:33 13.3 °C 5.2 °C 1011.4 hPa Calm     58 % 0 mm
20:38 13.2 °C 5.1 °C 1011.4 hPa Calm   1.9 km/h 58 % 0 mm
20:43 13.1 °C 5.3 °C 1011.4 hPa Calm     59 % 0 mm
20:48 12.9 °C 5.1 °C 1011.4 hPa Calm     59 % 0 mm
20:53 12.8 °C 5.2 °C 1011.4 hPa North 1.1 km/h 3.7 km/h 60 % 0 mm
20:58 12.6 °C 5.2 °C 1011.4 hPa Calm     61 % 0 mm
21:03 12.2 °C 5.2 °C 1011.4 hPa Calm     62 % 0 mm
21:08 12.1 °C 5.1 °C 1011.4 hPa Calm     62 % 0 mm
21:13 12 °C 5.2 °C 1011.4 hPa Calm     63 % 0 mm
21:18 11.9 °C 5.1 °C 1011.4 hPa Calm     63 % 0 mm
21:23 11.9 °C 5.3 °C 1011.4 hPa Calm     64 % 0 mm
21:28 12 °C 5.2 °C 1011.4 hPa Calm     63 % 0 mm
21:33 12.1 °C 5.2 °C 1011.4 hPa North 2.3 km/h 3.7 km/h 63 % 0 mm
21:38 11.9 °C 5.1 °C 1011.4 hPa North 2.6 km/h 3.7 km/h 63 % 0 mm
21:43 11.9 °C 5.3 °C 1011.4 hPa North 3.1 km/h 3.7 km/h 64 % 0 mm
21:48 12.1 °C 5.1 °C 1011.4 hPa Calm     62 % 0 mm
21:53 12 °C 5.2 °C 1011.4 hPa Calm     63 % 0 mm
21:58 12.1 °C 5.2 °C 1011.4 hPa North 2.6 km/h 4.8 km/h 63 % 0 mm
22:03 12.1 °C 5.1 °C 1011.4 hPa North 3.1 km/h 5.6 km/h 62 % 0 mm
22:08 12 °C 5.2 °C 1011.4 hPa North 0.5 km/h 1.6 km/h 63 % 0 mm
22:13 12.1 °C 5.2 °C 1011.4 hPa North 4 km/h 5.6 km/h 63 % 0 mm
22:18 12.2 °C 5.2 °C 1011.4 hPa North 1.8 km/h 3.7 km/h 62 % 0 mm
22:23 12.2 °C 5.2 °C 1011.4 hPa North 3.4 km/h 5.6 km/h 62 % 0 mm
22:28 12.2 °C 5.2 °C 1011.4 hPa North 2.3 km/h 3.7 km/h 62 % 0 mm
22:33 12.2 °C 5.2 °C 1011.4 hPa North 3.7 km/h 5.6 km/h 62 % 0 mm
22:38 12.4 °C 5.1 °C 1011.4 hPa North 5.1 km/h 5.6 km/h 61 % 0 mm
22:43 12.6 °C 5.1 °C 1011.4 hPa North 0.5 km/h 3.7 km/h 60 % 0 mm
22:48 12.7 °C 5.1 °C 1011.4 hPa North 1.9 km/h 3.7 km/h 60 % 0 mm
22:53 12.6 °C 5.1 °C 1011.4 hPa Calm   1.9 km/h 60 % 0 mm
22:58 12.5 °C 4.9 °C 1011.4 hPa North 1.4 km/h 3.7 km/h 60 % 0 mm
23:03 12.3 °C 5 °C 1011.1 hPa North 2.7 km/h 5.6 km/h 61 % 0 mm
23:08 12.3 °C 4.9 °C 1011.1 hPa North 1.4 km/h 4.8 km/h 61 % 0 mm
23:13 12.1 °C 5.1 °C 1011.1 hPa North 0.3 km/h 1.9 km/h 62 % 0 mm
23:18 11.9 °C 4.9 °C 1011.1 hPa North 0.3 km/h 3.2 km/h 62 % 0 mm
23:23 11.9 °C 5.1 °C 1011.1 hPa Calm   1.9 km/h 63 % 0 mm
23:28 11.9 °C 5.1 °C 1011.1 hPa North 2.6 km/h 5.6 km/h 63 % 0 mm
23:33 12.3 °C 4.9 °C 1011.1 hPa North 4.2 km/h 5.6 km/h 61 % 0 mm
23:38 12.6 °C 4.8 °C 1010.7 hPa North 3.4 km/h 5.6 km/h 59 % 0 mm
23:43 12.8 °C 4.7 °C 1010.7 hPa North 3.1 km/h 5.6 km/h 58 % 0 mm
23:48 12.9 °C 4.8 °C 1010.7 hPa North 2.4 km/h 5.6 km/h 58 % 0 mm
23:53 12.8 °C 4.8 °C 1010.7 hPa North 1.4 km/h 3.7 km/h 58 % 0 mm
23:58 12.8 °C 4.7 °C 1010.7 hPa North 3.9 km/h 5.6 km/h 58 % 0 mm
Ararat Weather
Compliments of Weather Underground - 2.25 mb
Click here to send mail.


ABOUT

Live weather data from Ararat, Victoria, Australia, 3377
Data uploaded from Cumulus every 5 minutes to Weather Underground.
This site then downloads the raw data for formatting and display.
Metric and imperial data can be displayed. Graphs and historical data available.
Includes Sun and Moon times and rain image live from BOM.

Check out Ararat Weather on Facebook, Twitter and Google +

Help support ongoing costs by checking out the ads





Follow @AraratWeather